Time;durP1;ratioP1;P1;durP2;ratioP2;P2;SDS_P1;SDS_P2;PMS_P1;PMS_P2;Temp;Humidity;BMP_temperature;BMP_pressure;BME280_temperature;BME280_humidity;BME280_pressure;Samples;Min_cycle;Max_cycle;Signal;HPM_P1;HPM_P2
2024/01/08 06:56:21;;;;;;;4.18;2.00;;;;;;;-5.79;100.00;99100.41;2568879;28;20050;-90
2024/01/08 06:57:38;;;;;;;6.93;3.55;;;;;;;-6.00;100.00;99101.97;2558626;28;20055;-89
2024/01/08 06:58:53;;;;;;;5.28;3.03;;;;;;;-6.20;100.00;99098.50;2556471;28;20054;-89
2024/01/08 07:00:10;;;;;;;6.72;2.88;;;;;;;-6.29;100.00;99096.38;2570852;28;20133;-88
2024/01/08 07:01:28;;;;;;;7.32;3.45;;;;;;;-6.19;100.00;99099.38;2562479;28;20059;-88
2024/01/08 07:02:43;;;;;;;10.95;4.50;;;;;;;-6.38;100.00;99103.53;2570401;28;20057;-88
2024/01/08 07:03:59;;;;;;;11.50;4.75;;;;;;;-6.01;100.00;99104.47;2572062;28;20498;-88
2024/01/08 07:05:17;;;;;;;8.77;4.05;;;;;;;-6.00;100.00;99112.19;2572003;28;20052;-88
2024/01/08 07:06:34;;;;;;;4.22;2.25;;;;;;;-6.30;100.00;99102.25;2570915;28;20038;-88
2024/01/08 07:07:52;;;;;;;8.27;3.95;;;;;;;-6.29;100.00;99098.91;2564640;28;20038;-88
2024/01/08 07:09:08;;;;;;;7.65;3.35;;;;;;;-6.28;100.00;99103.22;2572302;28;20135;-88
2024/01/08 07:10:24;;;;;;;8.55;5.25;;;;;;;-6.24;100.00;99114.44;2559680;28;20137;-88
2024/01/08 07:11:40;;;;;;;6.78;3.50;;;;;;;-6.60;100.00;99111.78;2559742;28;20187;-88
2024/01/08 07:12:56;;;;;;;8.07;2.90;;;;;;;-6.65;100.00;99108.13;2555710;28;20051;-88
2024/01/08 07:14:12;;;;;;;12.80;5.13;;;;;;;-6.26;100.00;99110.94;2551190;28;20043;-88
2024/01/08 07:15:40;;;;;;;11.63;5.10;;;;;;;-6.20;100.00;99118.88;2564258;28;20054;-88
2024/01/08 07:16:56;;;;;;;9.05;5.03;;;;;;;-6.43;100.00;99116.03;2567135;28;20146;-88
2024/01/08 07:18:12;;;;;;;23.60;5.30;;;;;;;-6.72;100.00;99122.22;2554060;28;20134;-87
2024/01/08 07:19:30;;;;;;;12.45;5.10;;;;;;;-6.38;100.00;99114.63;2559517;28;20190;-89
2024/01/08 07:20:50;;;;;;;7.40;3.22;;;;;;;-6.38;100.00;99126.47;2572387;28;20035;-88
2024/01/08 07:22:06;;;;;;;14.57;6.38;;;;;;;-6.02;100.00;99118.03;2578206;28;20034;-88
2024/01/08 07:23:23;;;;;;;10.70;4.90;;;;;;;-6.51;100.00;99122.44;2573058;28;20045;-87
2024/01/08 07:24:39;;;;;;;10.10;4.43;;;;;;;-6.46;100.00;99133.72;2566802;28;20488;-88
2024/01/08 07:25:56;;;;;;;12.55;5.30;;;;;;;-6.50;100.00;99126.72;2565384;28;20049;-88
2024/01/08 07:27:12;;;;;;;9.32;4.20;;;;;;;-6.53;100.00;99137.63;2561709;28;20442;-88
2024/01/08 07:28:28;;;;;;;12.30;4.75;;;;;;;-6.63;100.00;99135.44;2549375;28;20050;-88
2024/01/08 07:29:44;;;;;;;10.40;4.57;;;;;;;-6.49;100.00;99132.72;2562205;28;20046;-87
2024/01/08 07:31:01;;;;;;;14.50;5.35;;;;;;;-6.24;100.00;99140.78;2560777;28;20155;-88
2024/01/08 07:32:18;;;;;;;11.55;4.38;;;;;;;-6.48;100.00;99137.88;2560187;28;20039;-89
2024/01/08 07:33:36;;;;;;;11.43;4.30;;;;;;;-6.88;100.00;99143.44;2556639;28;20126;-87
2024/01/08 07:34:52;;;;;;;6.65;2.72;;;;;;;-6.96;100.00;99137.94;2553828;28;20042;-87
2024/01/08 07:36:09;;;;;;;5.32;2.13;;;;;;;-6.85;100.00;99133.41;2569712;28;20482;-87
2024/01/08 07:37:25;;;;;;;5.93;3.20;;;;;;;-6.67;100.00;99142.03;2577330;28;20528;-89
2024/01/08 07:38:41;;;;;;;8.15;3.72;;;;;;;-6.96;100.00;99141.38;2559500;28;20137;-87
2024/01/08 07:39:58;;;;;;;11.18;5.30;;;;;;;-6.74;100.00;99139.09;2568167;28;20046;-88
2024/01/08 07:41:14;;;;;;;10.52;3.83;;;;;;;-6.85;100.00;99146.13;2567759;28;20038;-88
2024/01/08 07:42:31;;;;;;;8.55;4.38;;;;;;;-6.74;100.00;99144.19;2555467;28;20090;-88
2024/01/08 07:43:47;;;;;;;11.38;4.72;;;;;;;-6.68;100.00;99145.38;2551231;28;20035;-89
2024/01/08 07:45:03;;;;;;;9.00;4.53;;;;;;;-6.98;100.00;99148.06;2555945;28;20047;-88
2024/01/08 07:46:19;;;;;;;10.45;3.80;;;;;;;-6.84;100.00;99153.00;2561049;28;20092;-88
2024/01/08 07:47:35;;;;;;;8.43;3.78;;;;;;;-6.99;100.00;99153.91;2553790;29;20047;-88
2024/01/08 07:48:51;;;;;;;11.13;5.15;;;;;;;-6.96;100.00;99158.31;2549847;28;20034;-88
2024/01/08 07:50:08;;;;;;;10.95;3.83;;;;;;;-6.96;100.00;99155.75;2563352;28;20061;-88
2024/01/08 07:51:25;;;;;;;8.80;4.47;;;;;;;-7.10;100.00;99163.53;2566200;28;20034;-88
2024/01/08 07:52:41;;;;;;;7.40;3.10;;;;;;;-7.12;100.00;99160.03;2564660;28;20092;-87
2024/01/08 07:53:58;;;;;;;12.15;5.13;;;;;;;-6.85;100.00;99166.50;2561247;28;20077;-87
2024/01/08 07:55:14;;;;;;;9.70;3.70;;;;;;;-6.95;100.00;99160.94;2563411;28;20042;-87
2024/01/08 07:56:30;;;;;;;9.45;3.63;;;;;;;-6.95;100.00;99171.13;2564686;28;20045;-88
2024/01/08 07:57:46;;;;;;;9.55;4.18;;;;;;;-7.00;100.00;99169.97;2564737;28;20054;-87
2024/01/08 07:59:03;;;;;;;11.02;4.88;;;;;;;-6.77;100.00;99170.34;2565424;28;20041;-88
2024/01/08 08:00:21;;;;;;;14.15;5.47;;;;;;;-6.84;100.00;99170.84;2567294;28;20110;-87
2024/01/08 08:01:37;;;;;;;9.85;4.93;;;;;;;-7.03;100.00;99172.38;2557947;28;20741;-88
2024/01/08 08:02:54;;;;;;;13.82;5.70;;;;;;;-6.81;100.00;99178.63;2558522;28;20037;-88
2024/01/08 08:04:10;;;;;;;11.73;5.82;;;;;;;-6.69;100.00;99179.28;2567081;28;20026;-88
2024/01/08 08:05:26;;;;;;;16.48;5.68;;;;;;;-6.63;100.00;99182.94;2566042;28;20043;-88
2024/01/08 08:06:42;;;;;;;10.23;4.28;;;;;;;-6.61;100.00;99178.78;2575892;28;20030;-88
2024/01/08 08:07:58;;;;;;;10.38;5.45;;;;;;;-6.57;100.00;99183.25;2562424;28;20137;-88
2024/01/08 08:09:14;;;;;;;14.45;5.43;;;;;;;-6.70;100.00;99182.63;2570520;28;20052;-88
2024/01/08 08:10:30;;;;;;;16.80;6.03;;;;;;;-6.49;100.00;99178.56;2571965;28;20129;-88
2024/01/08 08:11:46;;;;;;;18.95;5.75;;;;;;;-6.59;100.00;99190.81;2566363;28;20049;-88
2024/01/08 08:13:04;;;;;;;13.40;4.95;;;;;;;-6.65;100.00;99194.72;2564310;28;20047;-88
2024/01/08 08:14:20;;;;;;;12.80;5.00;;;;;;;-6.41;100.00;99188.34;2560974;28;20043;-88
2024/01/08 08:15:36;;;;;;;16.85;6.45;;;;;;;-6.44;100.00;99189.88;2552646;28;20578;-89
2024/01/08 08:16:53;;;;;;;6.40;3.05;;;;;;;-6.91;100.00;99189.09;2560206;28;20026;-89
2024/01/08 08:18:09;;;;;;;18.02;6.95;;;;;;;-6.49;100.00;99199.81;2565632;28;20046;-89
2024/01/08 08:19:26;;;;;;;13.63;5.65;;;;;;;-6.88;100.00;99199.44;2555211;28;20043;-89
2024/01/08 08:20:42;;;;;;;7.05;3.58;;;;;;;-6.94;100.00;99200.00;2549511;28;20047;-88
2024/01/08 08:21:58;;;;;;;10.02;3.90;;;;;;;-6.85;100.00;99197.94;2561280;28;20054;-87
2024/01/08 08:23:14;;;;;;;8.40;3.60;;;;;;;-6.73;100.00;99202.81;2561012;28;20559;-90
2024/01/08 08:24:30;;;;;;;12.50;6.20;;;;;;;-6.36;100.00;99205.56;2558838;28;20139;-88
2024/01/08 08:25:46;;;;;;;16.35;5.40;;;;;;;-6.16;100.00;99204.88;2545751;29;20535;-88
2024/01/08 08:27:02;;;;;;;12.43;5.70;;;;;;;-6.02;100.00;99204.72;2553976;28;20038;-92
2024/01/08 08:28:20;;;;;;;9.60;4.50;;;;;;;-6.17;100.00;99209.94;2563935;28;20039;-95
2024/01/08 08:29:38;;;;;;;15.68;6.38;;;;;;;-6.13;100.00;99214.38;2561767;28;20074;-91
2024/01/08 08:30:54;;;;;;;13.93;6.22;;;;;;;-6.13;100.00;99216.94;2557778;28;20487;-92
2024/01/08 08:32:10;;;;;;;16.48;6.68;;;;;;;-6.22;100.00;99216.44;2550795;28;20119;-91
2024/01/08 08:33:26;;;;;;;13.98;6.18;;;;;;;-6.19;100.00;99208.97;2570911;28;20510;-91
2024/01/08 08:34:42;;;;;;;14.20;6.28;;;;;;;-6.21;100.00;99213.97;2557966;29;20536;-92
2024/01/08 08:36:01;;;;;;;14.68;4.63;;;;;;;-6.68;100.00;99226.88;2567764;28;20384;-93
2024/01/08 08:37:17;;;;;;;10.70;5.32;;;;;;;-6.90;100.00;99224.84;2562362;28;20067;-92
2024/01/08 08:38:34;;;;;;;11.30;5.85;;;;;;;-6.99;100.00;99222.66;2569157;28;20591;-92
2024/01/08 08:39:53;;;;;;;13.00;5.55;;;;;;;-6.53;100.00;99221.69;2572490;28;20042;-92
2024/01/08 08:41:12;;;;;;;13.45;6.47;;;;;;;-6.94;100.00;99222.91;2557141;28;20091;-92
2024/01/08 08:42:29;;;;;;;14.02;6.03;;;;;;;-6.59;100.00;99225.59;2546964;29;20053;-94
2024/01/08 08:43:45;;;;;;;8.82;4.00;;;;;;;-6.97;100.00;99226.19;2545210;29;20063;-92
2024/01/08 08:45:03;;;;;;;9.63;5.03;;;;;;;-6.70;100.00;99228.47;2552108;28;20087;-91
2024/01/08 08:46:19;;;;;;;10.02;5.35;;;;;;;-6.97;100.00;99230.38;2551407;28;20142;-92
2024/01/08 08:47:35;;;;;;;10.18;4.03;;;;;;;-6.85;100.00;99243.78;2551173;28;20448;-91
2024/01/08 08:48:52;;;;;;;10.45;4.40;;;;;;;-6.76;100.00;99245.09;2557112;28;20129;-93
2024/01/08 08:50:09;;;;;;;9.60;4.63;;;;;;;-6.90;100.00;99244.31;2570027;28;20078;-92
2024/01/08 08:51:25;;;;;;;17.38;5.40;;;;;;;-6.90;100.00;99242.66;2567332;28;20051;-92
2024/01/08 08:52:45;;;;;;;10.05;4.18;;;;;;;-6.58;100.00;99242.63;2555844;28;20146;-93
2024/01/08 08:54:03;;;;;;;21.83;6.57;;;;;;;-6.56;100.00;99244.47;2565319;28;20050;-93
2024/01/08 08:55:19;;;;;;;18.80;5.45;;;;;;;-6.25;100.00;99240.97;2558261;28;20078;-93
2024/01/08 08:56:36;;;;;;;13.10;4.60;;;;;;;-6.65;100.00;99246.50;2552150;28;20408;-92
2024/01/08 08:57:52;;;;;;;20.80;4.32;;;;;;;-6.83;100.00;99248.97;2550065;28;20085;-92
2024/01/08 08:59:10;;;;;;;13.75;5.28;;;;;;;-6.78;100.00;99245.00;2555953;28;20089;-92
2024/01/08 09:00:26;;;;;;;12.00;5.72;;;;;;;-6.68;100.00;99251.44;2565734;28;20050;-93
2024/01/08 09:01:42;;;;;;;16.17;6.28;;;;;;;-6.37;100.00;99250.53;2566184;28;20051;-93
2024/01/08 09:03:02;;;;;;;16.02;5.40;;;;;;;-6.20;100.00;99258.19;2561872;28;20043;-91
2024/01/08 09:04:18;;;;;;;14.55;5.95;;;;;;;-6.31;100.00;99260.16;2562406;28;20043;-92
2024/01/08 09:05:34;;;;;;;15.57;6.53;;;;;;;-6.74;100.00;99264.72;2559199;28;20062;-93
2024/01/08 09:06:50;;;;;;;11.13;4.65;;;;;;;-6.50;100.00;99266.84;2555662;28;20047;-94
2024/01/08 09:08:07;;;;;;;11.05;5.85;;;;;;;-6.42;100.00;99263.06;2572221;28;20554;-94
2024/01/08 09:09:23;;;;;;;14.45;5.28;;;;;;;-6.43;100.00;99258.72;2573305;28;20162;-93
2024/01/08 09:10:39;;;;;;;15.73;5.85;;;;;;;-6.55;100.00;99258.94;2566794;28;20034;-92
2024/01/08 09:11:55;;;;;;;11.10;5.68;;;;;;;-6.22;100.00;99260.66;2567504;28;20118;-92
2024/01/08 09:13:12;;;;;;;6.10;3.45;;;;;;;-6.19;100.00;99259.94;2567420;28;20042;-92
2024/01/08 09:14:28;;;;;;;11.50;4.57;;;;;;;-5.90;100.00;99253.75;2558724;28;20055;-93
2024/01/08 09:15:43;;;;;;;4.90;3.28;;;;;;;-6.39;100.00;99260.66;2558150;28;20050;-92
2024/01/08 09:16:59;;;;;;;10.23;5.35;;;;;;;-5.97;100.00;99265.31;2558251;28;20089;-93
2024/01/08 09:18:15;;;;;;;14.25;6.63;;;;;;;-5.79;100.00;99263.63;2552548;28;20046;-93
2024/01/08 09:19:31;;;;;;;13.93;5.32;;;;;;;-5.87;100.00;99265.78;2552240;28;20112;-94
2024/01/08 09:20:47;;;;;;;16.20;6.20;;;;;;;-6.02;100.00;99263.34;2552346;28;20409;-95
2024/01/08 09:22:04;;;;;;;15.18;7.45;;;;;;;-5.95;100.00;99265.41;2553706;28;20042;-93
2024/01/08 09:23:20;;;;;;;13.00;6.75;;;;;;;-5.93;100.00;99268.03;2551726;28;20138;-93
2024/01/08 09:24:36;;;;;;;14.35;5.72;;;;;;;-6.00;100.00;99266.84;2565723;28;20138;-92
2024/01/08 09:25:52;;;;;;;18.02;7.40;;;;;;;-6.31;100.00;99278.91;2557200;28;20133;-93
2024/01/08 09:27:08;;;;;;;8.68;4.38;;;;;;;-6.42;100.00;99280.00;2553528;28;20085;-93
2024/01/08 09:28:24;;;;;;;16.60;6.20;;;;;;;-6.13;100.00;99273.00;2556833;28;20057;-92
2024/01/08 09:29:41;;;;;;;10.95;5.97;;;;;;;-6.20;100.00;99269.25;2546779;29;20047;-92
2024/01/08 09:30:58;;;;;;;7.97;5.25;;;;;;;-6.14;100.00;99276.34;2551713;28;20058;-92
2024/01/08 09:32:15;;;;;;;12.80;5.25;;;;;;;-6.31;100.00;99272.91;2551463;28;20055;-94
2024/01/08 09:33:30;;;;;;;14.73;6.13;;;;;;;-6.68;100.00;99277.81;2550870;28;20039;-93
2024/01/08 09:34:47;;;;;;;16.85;5.72;;;;;;;-6.86;100.00;99277.69;2542590;29;20401;-91
2024/01/08 09:36:04;;;;;;;13.52;5.78;;;;;;;-6.77;100.00;99269.66;2563115;28;20081;-93
2024/01/08 09:37:20;;;;;;;14.10;6.00;;;;;;;-6.38;100.00;99270.06;2563235;28;20073;-92
2024/01/08 09:38:36;;;;;;;12.35;5.95;;;;;;;-6.41;100.00;99274.09;2576050;28;20040;-92
2024/01/08 09:39:53;;;;;;;23.77;7.82;;;;;;;-6.60;100.00;99274.78;2573458;28;20058;-92
2024/01/08 09:41:12;;;;;;;8.18;3.80;;;;;;;-6.62;100.00;99279.81;2563151;28;20047;-92
2024/01/08 09:42:28;;;;;;;12.57;4.75;;;;;;;-6.44;100.00;99273.94;2557689;28;20046;-92
2024/01/08 09:43:47;;;;;;;23.98;7.95;;;;;;;-6.31;100.00;99278.91;2555223;28;20515;-91
2024/01/08 09:45:10;;;;;;;21.13;8.02;;;;;;;-6.45;100.00;99280.69;2554237;28;20074;-92
2024/01/08 09:46:30;;;;;;;15.32;6.95;;;;;;;-6.29;100.00;99278.97;2554416;28;20133;-92
2024/01/08 09:47:46;;;;;;;14.00;6.55;;;;;;;-6.31;100.00;99276.34;2563273;28;20045;-91
2024/01/08 09:49:03;;;;;;;15.00;6.90;;;;;;;-6.10;100.00;99274.03;2567339;28;20062;-92
2024/01/08 09:50:21;;;;;;;13.93;5.78;;;;;;;-6.53;100.00;99275.19;2564531;28;20109;-93
2024/01/08 09:51:40;;;;;;;14.85;6.25;;;;;;;-6.32;100.00;99274.59;2553801;28;20134;-94
2024/01/08 09:52:56;;;;;;;14.43;6.72;;;;;;;-5.79;100.00;99264.53;2556552;28;20054;-93
2024/01/08 09:54:13;;;;;;;16.95;7.13;;;;;;;-5.71;100.00;99267.47;2563187;28;20057;-92
2024/01/08 09:55:30;;;;;;;20.38;6.78;;;;;;;-5.93;100.00;99261.25;2564115;28;20047;-92
2024/01/08 09:56:50;;;;;;;17.77;6.95;;;;;;;-5.93;100.00;99257.84;2558455;28;20497;-92
2024/01/08 09:58:08;;;;;;;17.08;7.07;;;;;;;-5.63;100.00;99253.38;2561825;28;20038;-93
2024/01/08 09:59:25;;;;;;;15.68;5.78;;;;;;;-6.12;100.00;99260.34;2556277;28;20051;-92
2024/01/08 10:00:42;;;;;;;12.68;6.13;;;;;;;-6.26;100.00;99248.56;2567654;28;20138;-92
2024/01/08 10:01:58;;;;;;;9.98;4.60;;;;;;;-6.17;100.00;99255.81;2571995;28;20047;-92
2024/01/08 10:03:14;;;;;;;14.15;6.07;;;;;;;-6.35;100.00;99250.63;2565298;28;20051;-93
2024/01/08 10:04:31;;;;;;;18.05;7.55;;;;;;;-6.21;100.00;99252.22;2563180;28;20125;-93
2024/01/08 10:05:47;;;;;;;16.88;7.03;;;;;;;-5.86;100.00;99253.13;2560635;28;20124;-93
2024/01/08 10:07:05;;;;;;;12.98;5.30;;;;;;;-6.14;100.00;99259.41;2563374;28;20051;-93
2024/01/08 10:08:21;;;;;;;12.05;5.57;;;;;;;-5.95;100.00;99257.75;2552865;28;20081;-93
2024/01/08 10:09:37;;;;;;;20.15;6.93;;;;;;;-5.91;100.00;99267.31;2551527;28;20047;-93
2024/01/08 10:10:53;;;;;;;15.73;6.10;;;;;;;-5.56;100.00;99269.88;2563683;28;20050;-93
2024/01/08 10:12:13;;;;;;;13.05;5.93;;;;;;;-5.60;100.00;99271.41;2561869;28;20051;-93
2024/01/08 10:13:29;;;;;;;15.18;6.80;;;;;;;-5.93;100.00;99261.25;2556754;28;20590;-93
2024/01/08 10:14:46;;;;;;;13.68;6.40;;;;;;;-5.61;100.00;99271.34;2542744;29;20141;-92
2024/01/08 10:16:02;;;;;;;18.58;6.72;;;;;;;-5.30;100.00;99271.19;2556974;28;20114;-92
2024/01/08 10:17:21;;;;;;;13.88;5.88;;;;;;;-5.50;100.00;99267.66;2558739;28;20125;-92
2024/01/08 10:18:37;;;;;;;11.55;5.15;;;;;;;-5.21;100.00;99270.75;2563125;28;20077;-93
2024/01/08 10:20:05;;;;;;;11.85;2.65;;;;;;;-5.16;100.00;99269.28;2563008;28;20039;-95
2024/01/08 10:21:22;;;;;;;9.13;4.90;;;;;;;-5.09;100.00;99267.91;2559257;28;20057;-93
2024/01/08 10:22:38;;;;;;;10.23;4.97;;;;;;;-5.29;100.00;99272.94;2562156;28;20046;-95
2024/01/08 10:24:08;;;;;;;13.07;5.68;;;;;;;-5.20;100.00;99269.06;2557998;28;20610;-94
2024/01/08 10:25:24;;;;;;;13.63;6.65;;;;;;;-4.88;100.00;99254.41;2556785;28;20051;-94
2024/01/08 10:26:41;;;;;;;14.63;6.38;;;;;;;-5.16;100.00;99270.97;2562474;28;20073;-94
2024/01/08 10:27:58;;;;;;;8.18;4.07;;;;;;;-5.39;100.00;99269.03;2569055;28;20459;-93
2024/01/08 10:29:14;;;;;;;10.77;5.72;;;;;;;-5.36;100.00;99273.41;2558906;28;20101;-94
2024/01/08 10:30:30;;;;;;;12.10;4.95;;;;;;;-5.33;100.00;99275.25;2557749;28;20051;-93
2024/01/08 10:31:47;;;;;;;12.10;5.43;;;;;;;-5.10;100.00;99271.25;2565548;28;20591;-95
2024/01/08 10:33:03;;;;;;;12.70;6.15;;;;;;;-4.87;100.00;99271.50;2563930;28;20145;-94
2024/01/08 10:34:20;;;;;;;13.45;5.95;;;;;;;-5.22;100.00;99260.44;2555993;28;20052;-95
2024/01/08 10:35:36;;;;;;;18.83;6.93;;;;;;;-5.37;100.00;99266.56;2561398;28;20137;-93
2024/01/08 10:36:53;;;;;;;13.55;6.22;;;;;;;-5.34;100.00;99261.59;2559036;28;20086;-95
2024/01/08 10:38:09;;;;;;;16.40;7.70;;;;;;;-5.07;100.00;99261.19;2563236;28;20141;-94
2024/01/08 10:39:30;;;;;;;17.58;7.40;;;;;;;-5.19;100.00;99270.81;2559508;28;20050;-93
2024/01/08 10:40:46;;;;;;;17.65;5.88;;;;;;;-5.25;100.00;99264.63;2558815;28;20078;-94
2024/01/08 10:42:02;;;;;;;14.00;6.07;;;;;;;-5.07;100.00;99270.53;2562034;28;20046;-93
2024/01/08 10:43:18;;;;;;;11.23;5.85;;;;;;;-5.00;100.00;99276.00;2567904;28;20039;-93
2024/01/08 10:44:34;;;;;;;18.17;8.18;;;;;;;-5.45;100.00;99267.84;2569783;28;20585;-94
2024/01/08 10:45:56;;;;;;;15.57;7.55;;;;;;;-4.97;100.00;99270.16;2567971;28;20461;-94
2024/01/08 10:47:19;;;;;;;16.70;7.65;;;;;;;-5.49;100.00;99273.63;2558986;28;20086;-93
2024/01/08 10:48:39;;;;;;;13.50;5.38;;;;;;;-5.21;100.00;99270.75;2553185;28;20038;-93
2024/01/08 10:49:58;;;;;;;7.05;4.18;;;;;;;-5.51;100.00;99265.00;2555233;28;20049;-93
2024/01/08 10:51:16;;;;;;;15.57;5.07;;;;;;;-5.25;100.00;99268.81;2563762;28;20092;-93
2024/01/08 10:52:33;;;;;;;20.73;7.20;;;;;;;-4.98;100.00;99266.75;2560088;28;20055;-93
2024/01/08 10:53:53;;;;;;;7.13;3.92;;;;;;;-5.12;100.00;99260.97;2571596;28;20035;-93
2024/01/08 10:55:13;;;;;;;15.85;7.60;;;;;;;-5.27;100.00;99267.88;2568816;28;20047;-94
2024/01/08 10:56:31;;;;;;;15.55;6.75;;;;;;;-5.35;100.00;99261.56;2570057;28;20066;-93
2024/01/08 10:58:08;;;;;;;21.45;7.95;;;;;;;-4.92;100.00;99257.59;2568233;28;20056;-93
2024/01/08 10:59:27;;;;;;;12.32;5.50;;;;;;;-5.25;100.00;99262.06;2559749;28;20039;-92
2024/01/08 11:00:43;;;;;;;14.23;6.75;;;;;;;-5.17;100.00;99262.44;2559327;28;20078;-93
2024/01/08 11:01:59;;;;;;;16.02;7.28;;;;;;;-5.00;100.00;99262.34;2567942;28;20042;-94
2024/01/08 11:03:16;;;;;;;14.30;6.28;;;;;;;-4.93;100.00;99263.53;2570893;28;20125;-93
2024/01/08 11:04:32;;;;;;;15.27;7.03;;;;;;;-5.13;100.00;99266.00;2553767;29;20078;-93
2024/01/08 11:05:51;;;;;;;15.85;6.20;;;;;;;-4.72;100.00;99258.53;2551298;28;20050;-93
2024/01/08 11:07:10;;;;;;;21.15;6.85;;;;;;;-4.59;100.00;99260.84;2557438;28;20046;-93
2024/01/08 11:08:27;;;;;;;11.75;5.00;;;;;;;-4.80;100.00;99263.28;2555051;28;20051;-94
2024/01/08 11:09:44;;;;;;;7.47;4.13;;;;;;;-4.91;100.00;99264.47;2573477;28;20042;-94
2024/01/08 11:11:10;;;;;;;18.48;7.38;;;;;;;-4.31;100.00;99266.38;2572635;28;20042;-95
2024/01/08 11:12:28;;;;;;;12.88;5.10;;;;;;;-4.52;100.00;99266.25;2569935;28;20326;-94
2024/01/08 11:13:45;;;;;;;14.38;6.22;;;;;;;-4.62;100.00;99263.28;2557302;28;20047;-94
2024/01/08 11:15:05;;;;;;;13.13;6.55;;;;;;;-4.79;100.00;99269.28;2563376;28;20129;-94
2024/01/08 11:16:29;;;;;;;15.75;5.10;;;;;;;-5.07;100.00;99263.75;2550048;29;20055;-94
2024/01/08 11:17:58;;;;;;;11.38;5.65;;;;;;;-4.72;100.00;99261.97;2545422;29;20051;-93
2024/01/08 11:19:17;;;;;;;15.70;6.00;;;;;;;-4.60;100.00;99269.34;2554908;28;20043;-93
2024/01/08 11:20:46;;;;;;;11.48;4.70;;;;;;;-4.60;100.00;99266.78;2561743;28;20055;-93
2024/01/08 11:22:14;;;;;;;13.50;6.00;;;;;;;-4.86;100.00;99263.03;2559659;28;20541;-93
2024/01/08 11:23:38;;;;;;;14.13;6.55;;;;;;;-4.42;100.00;99271.84;2563101;28;20048;-94
2024/01/08 11:24:59;;;;;;;18.52;6.43;;;;;;;-4.46;100.00;99271.66;2577872;28;20117;-93
2024/01/08 11:26:31;;;;;;;11.77;5.07;;;;;;;-4.43;100.00;99277.78;2573677;28;20085;-93
2024/01/08 11:28:12;;;;;;;19.48;6.63;;;;;;;-4.44;100.00;99283.69;2571684;28;20604;-94
2024/01/08 11:29:28;;;;;;;8.48;4.93;;;;;;;-4.77;100.00;99277.91;2558806;28;20598;-93
2024/01/08 11:30:45;;;;;;;12.10;5.57;;;;;;;-4.86;100.00;99291.13;2548546;29;20043;-93
2024/01/08 11:32:23;;;;;;;11.02;5.65;;;;;;;-4.26;100.00;99283.66;2564259;28;20049;-93
2024/01/08 11:33:48;;;;;;;17.67;7.05;;;;;;;-4.30;100.00;99291.13;2574577;28;20540;-93
2024/01/08 11:35:07;;;;;;;18.17;6.50;;;;;;;-4.36;100.00;99291.72;2564560;28;20047;-93
2024/01/08 11:36:45;;;;;;;14.65;7.20;;;;;;;-4.88;100.00;99303.81;2563730;28;20050;-94
2024/01/08 11:38:33;;;;;;;8.10;4.28;;;;;;;-4.71;100.00;99304.63;2562126;28;20575;-93
2024/01/08 11:39:50;;;;;;;11.02;5.32;;;;;;;-4.42;100.00;99299.09;2558575;28;20039;-93
2024/01/08 11:41:06;;;;;;;12.80;5.63;;;;;;;-5.04;100.00;99312.41;2570867;28;20052;-95
2024/01/08 11:42:22;;;;;;;12.32;5.47;;;;;;;-4.49;100.00;99299.63;2569488;28;20078;-94
2024/01/08 11:43:39;;;;;;;13.52;5.25;;;;;;;-4.79;100.00;99311.03;2566079;28;20050;-94
2024/01/08 11:45:01;;;;;;;16.98;5.97;;;;;;;-5.05;100.00;99309.78;2556401;28;20043;-93
2024/01/08 11:46:17;;;;;;;11.50;7.53;;;;;;;-4.70;100.00;99311.47;2563295;28;20514;-93
2024/01/08 11:47:33;;;;;;;11.82;4.07;;;;;;;-4.98;100.00;99315.25;2559093;29;20043;-93
2024/01/08 11:48:49;;;;;;;8.85;4.78;;;;;;;-5.01;100.00;99315.13;2549136;28;20047;-94
2024/01/08 11:50:06;;;;;;;18.33;7.60;;;;;;;-4.40;100.00;99300.91;2557166;28;20047;-94
2024/01/08 11:51:23;;;;;;;17.75;7.03;;;;;;;-4.05;100.00;99302.44;2557336;28;20050;-95
2024/01/08 11:52:40;;;;;;;13.98;6.30;;;;;;;-3.98;100.00;99310.47;2553058;28;20050;-93
2024/01/08 11:54:00;;;;;;;11.98;6.28;;;;;;;-3.79;100.00;99302.69;2551938;28;20055;-94
2024/01/08 11:55:18;;;;;;;9.32;5.78;;;;;;;-4.25;100.00;99299.88;2557505;28;20110;-94
2024/01/08 11:56:37;;;;;;;16.35;7.57;;;;;;;-4.16;100.00;99300.28;2548533;29;20047;-94
2024/01/08 11:57:53;;;;;;;21.55;7.28;;;;;;;-3.72;100.00;99290.22;2553450;29;20043;-92
2024/01/08 11:59:09;;;;;;;13.65;6.15;;;;;;;-3.31;100.00;99286.78;2556909;28;20059;-94
2024/01/08 12:00:29;;;;;;;18.73;8.25;;;;;;;-2.68;100.00;99287.56;2552917;29;20082;-88
2024/01/08 12:01:45;;;;;;;12.93;6.95;;;;;;;-3.08;100.00;99287.72;2560860;28;20103;-89
2024/01/08 12:03:02;;;;;;;12.77;5.80;;;;;;;-3.28;100.00;99282.69;2559547;28;20043;-88
2024/01/08 12:04:18;;;;;;;17.00;6.57;;;;;;;-2.74;100.00;99289.09;2552129;29;20031;-87
2024/01/08 12:05:36;;;;;;;16.33;7.13;;;;;;;-2.75;100.00;99286.44;2543348;29;20134;-88
2024/01/08 12:06:54;;;;;;;11.38;5.15;;;;;;;-3.44;100.00;99278.59;2550885;28;20039;-88
2024/01/08 12:08:16;;;;;;;16.08;7.35;;;;;;;-3.26;100.00;99282.75;2557311;28;20147;-89
2024/01/08 12:09:32;;;;;;;18.70;7.20;;;;;;;-2.16;100.00;99273.28;2551992;29;20079;-89
2024/01/08 12:10:54;;;;;;;7.72;4.55;;;;;;;-2.53;99.98;99280.47;2540741;29;20046;-88
2024/01/08 12:12:10;;;;;;;17.80;6.68;;;;;;;-2.20;95.10;99272.31;2553087;28;20108;-87
2024/01/08 12:13:26;;;;;;;18.63;7.60;;;;;;;-1.71;94.42;99277.41;2556524;28;20039;-88
2024/01/08 12:14:42;;;;;;;14.60;6.88;;;;;;;-2.15;91.46;99278.47;2545788;29;20043;-89
2024/01/08 12:16:00;;;;;;;11.45;5.03;;;;;;;-3.23;100.00;99275.19;2548013;29;20047;-88
2024/01/08 12:17:18;;;;;;;18.08;8.48;;;;;;;-2.71;100.00;99278.94;2542035;29;20611;-89
2024/01/08 12:18:34;;;;;;;16.60;7.45;;;;;;;-2.07;96.28;99275.31;2547299;29;20531;-88
2024/01/08 12:19:54;;;;;;;12.15;5.93;;;;;;;-1.95;87.00;99277.44;2550288;29;20323;-88
2024/01/08 12:21:10;;;;;;;13.73;5.78;;;;;;;-2.75;95.37;99284.78;2556748;28;20038;-88
2024/01/08 12:22:27;;;;;;;19.42;7.35;;;;;;;-2.73;99.87;99288.28;2560004;28;20135;-88
2024/01/08 12:23:43;;;;;;;13.10;6.45;;;;;;;-2.72;99.27;99290.00;2554386;29;20729;-88
2024/01/08 12:24:59;;;;;;;10.85;5.82;;;;;;;-2.50;91.73;99285.72;2542460;29;20080;-88
2024/01/08 12:26:18;;;;;;;12.25;6.30;;;;;;;-3.07;99.80;99284.38;2541109;29;20049;-89
2024/01/08 12:27:37;;;;;;;13.00;6.05;;;;;;;-3.51;100.00;99285.97;2551955;28;20191;-88
2024/01/08 12:28:54;;;;;;;12.10;4.28;;;;;;;-3.73;100.00;99287.63;2562349;28;20062;-88
2024/01/08 12:30:12;;;;;;;17.30;7.80;;;;;;;-3.27;100.00;99276.75;2545189;29;20039;-88
2024/01/08 12:31:34;;;;;;;23.17;9.38;;;;;;;-3.16;100.00;99278.88;2556143;28;20035;-89
2024/01/08 12:32:50;;;;;;;14.82;6.30;;;;;;;-2.57;97.60;99276.03;2549341;29;20046;-89
2024/01/08 12:34:08;;;;;;;15.90;6.82;;;;;;;-2.09;93.59;99282.09;2539777;29;20190;-90
2024/01/08 12:35:24;;;;;;;15.65;6.80;;;;;;;-1.84;88.94;99273.56;2544569;29;20093;-89
2024/01/08 12:36:40;;;;;;;10.68;5.88;;;;;;;-2.66;94.02;99278.25;2553382;28;20134;-88
2024/01/08 12:37:56;;;;;;;21.85;8.98;;;;;;;-2.03;90.17;99278.03;2538645;29;20242;-89
2024/01/08 12:39:16;;;;;;;19.35;7.18;;;;;;;-1.64;86.89;99268.25;2550503;28;20039;-87
2024/01/08 12:40:32;;;;;;;9.90;4.78;;;;;;;-2.88;98.37;99274.84;2562863;28;20113;-89
2024/01/08 12:41:55;;;;;;;9.70;5.68;;;;;;;-3.55;100.00;99278.16;2551922;29;20056;-89
2024/01/08 12:43:11;;;;;;;9.10;4.00;;;;;;;-3.48;100.00;99281.00;2558686;28;20158;-89
2024/01/08 12:44:32;;;;;;;10.43;4.93;;;;;;;-3.31;100.00;99271.44;2556295;28;20066;-89
2024/01/08 12:45:50;;;;;;;12.07;5.43;;;;;;;-2.94;100.00;99272.94;2558208;28;20133;-90
2024/01/08 12:47:07;;;;;;;16.15;7.10;;;;;;;-1.88;89.46;99275.16;2562135;28;20039;-90
2024/01/08 12:48:23;;;;;;;16.13;7.38;;;;;;;-0.68;75.17;99271.34;2562464;28;20054;-88
2024/01/08 12:49:40;;;;;;;16.95;7.68;;;;;;;-0.21;71.31;99268.44;2551783;29;20107;-89
2024/01/08 12:50:56;;;;;;;15.57;7.22;;;;;;;0.33;67.43;99275.91;2557179;28;20046;-88
2024/01/08 12:52:12;;;;;;;14.75;7.50;;;;;;;0.55;66.85;99261.88;2555739;28;20051;-89
2024/01/08 12:53:28;;;;;;;14.27;5.95;;;;;;;-1.58;61.15;99274.47;2555448;28;20043;-89
2024/01/08 12:54:44;;;;;;;12.57;5.90;;;;;;;-1.12;63.13;99275.94;2555239;28;20527;-89